createdAt,value
2022-08-31T00:00:30.124Z,100882.41
2022-08-31T00:03:14.995Z,100884.19
2022-08-31T00:05:42.489Z,100877.63
2022-08-31T00:08:10.062Z,100876.00
2022-08-31T00:10:41.166Z,100881.69
2022-08-31T00:13:10.897Z,100885.97
2022-08-31T00:15:41.385Z,100883.81
2022-08-31T00:18:09.182Z,100882.16
2022-08-31T00:20:37.254Z,100885.63
2022-08-31T00:23:05.257Z,100883.66
2022-08-31T00:25:34.132Z,100881.19
2022-08-31T00:28:01.734Z,100885.13
2022-08-31T00:30:29.217Z,100889.97
2022-08-31T00:32:58.657Z,100887.25
2022-08-31T00:35:26.359Z,100884.53
2022-08-31T00:37:53.987Z,100893.66
2022-08-31T00:40:21.798Z,100894.34
2022-08-31T00:42:49.369Z,100901.53
2022-08-31T00:45:16.960Z,100898.59
2022-08-31T00:47:44.521Z,100899.56
2022-08-31T00:50:16.663Z,100901.03
2022-08-31T00:52:47.964Z,100893.50
2022-08-31T00:55:18.194Z,100885.28
2022-08-31T00:57:48.075Z,100892.34
2022-08-31T01:00:18.387Z,100877.09
2022-08-31T01:02:46.021Z,100883.34
2022-08-31T01:05:15.524Z,100882.25
2022-08-31T01:07:43.831Z,100883.34
2022-08-31T01:10:11.790Z,100877.09
2022-08-31T01:12:39.354Z,100873.13
2022-08-31T01:15:08.730Z,100874.75
2022-08-31T01:17:37.236Z,100879.72
2022-08-31T01:20:09.237Z,100871.78
2022-08-31T01:22:40.552Z,100879.50
2022-08-31T01:25:09.410Z,100881.38
2022-08-31T01:27:37.959Z,100884.28
2022-08-31T01:30:10.543Z,100885.41
2022-08-31T01:32:38.396Z,100882.13
2022-08-31T01:35:07.281Z,100880.25
2022-08-31T01:37:39.048Z,100882.94
2022-08-31T01:40:09.933Z,100882.47
2022-08-31T01:42:37.513Z,100890.16
2022-08-31T01:45:06.610Z,100880.16
2022-08-31T01:47:34.168Z,100884.16
2022-08-31T01:50:01.644Z,100879.00
2022-08-31T01:52:29.345Z,100886.88
2022-08-31T01:54:57.155Z,100876.72
2022-08-31T01:57:33.717Z,100876.94
2022-08-31T02:00:02.515Z,100887.28
2022-08-31T02:02:30.164Z,100882.59
2022-08-31T02:05:00.073Z,100876.00
2022-08-31T02:07:27.552Z,100878.06
2022-08-31T02:09:55.287Z,100876.66
2022-08-31T02:12:22.768Z,100876.78
2022-08-31T02:14:51.701Z,100879.03
2022-08-31T02:17:19.350Z,100881.72
2022-08-31T02:19:46.826Z,100882.44
2022-08-31T02:22:14.316Z,100881.09
2022-08-31T02:24:41.803Z,100881.00
2022-08-31T02:27:09.311Z,100884.88
2022-08-31T02:29:37.530Z,100900.06
2022-08-31T02:32:06.751Z,100902.22
2022-08-31T02:34:34.271Z,100911.91
2022-08-31T02:37:01.799Z,100912.56
2022-08-31T02:39:29.293Z,100907.75
2022-08-31T02:41:56.754Z,100899.09
2022-08-31T02:44:24.213Z,100904.88
2022-08-31T02:46:51.878Z,100914.13
2022-08-31T02:49:21.596Z,100912.44
2022-08-31T02:51:49.087Z,100901.31
2022-08-31T02:54:16.999Z,100904.38
2022-08-31T02:56:44.467Z,100898.31
2022-08-31T02:59:11.940Z,100907.50
2022-08-31T03:01:39.918Z,100908.47
2022-08-31T03:04:07.663Z,100904.31
2022-08-31T03:06:36.441Z,100904.31
2022-08-31T03:09:04.283Z,100904.38
2022-08-31T03:11:32.376Z,100901.94
2022-08-31T03:13:59.850Z,100912.19
2022-08-31T03:16:27.377Z,100910.44
2022-08-31T03:18:54.884Z,100914.56
2022-08-31T03:21:22.351Z,100916.19
2022-08-31T03:23:51.157Z,100909.13
2022-08-31T03:26:18.662Z,100910.28
2022-08-31T03:28:46.133Z,100908.78
2022-08-31T03:31:13.754Z,100922.00
2022-08-31T03:33:41.264Z,100912.69
2022-08-31T03:36:08.777Z,100910.44
2022-08-31T03:38:36.277Z,100906.19
2022-08-31T03:41:05.131Z,100905.03
2022-08-31T03:43:32.631Z,100914.41
2022-08-31T03:46:00.255Z,100915.13
2022-08-31T03:48:27.839Z,100915.03
2022-08-31T03:50:55.334Z,100916.38
2022-08-31T03:53:23.200Z,100918.50
2022-08-31T03:55:50.737Z,100920.16
2022-08-31T03:58:19.561Z,100929.34
2022-08-31T04:00:47.034Z,100933.09
2022-08-31T04:03:14.596Z,100930.97
2022-08-31T04:05:44.036Z,100927.25
2022-08-31T04:08:11.597Z,100924.28
2022-08-31T04:10:39.928Z,100933.50
2022-08-31T04:13:07.440Z,100934.16
2022-08-31T04:15:37.315Z,100936.31
2022-08-31T04:18:05.364Z,100945.72
2022-08-31T04:20:35.080Z,100953.03
2022-08-31T04:23:02.683Z,100944.66
2022-08-31T04:25:30.334Z,100948.66
2022-08-31T04:27:58.261Z,100953.59
2022-08-31T04:30:25.905Z,100949.72
2022-08-31T04:32:55.365Z,100949.13
2022-08-31T04:35:22.854Z,100948.09
2022-08-31T04:37:50.328Z,100952.06
2022-08-31T04:40:20.148Z,100948.22
2022-08-31T04:42:48.571Z,100954.09
2022-08-31T04:45:17.345Z,100960.25
2022-08-31T04:47:45.319Z,100956.94
2022-08-31T04:50:16.399Z,100960.59
2022-08-31T04:52:44.905Z,100962.47
2022-08-31T04:55:28.593Z,100960.72
2022-08-31T04:57:57.943Z,100964.97
2022-08-31T05:00:25.847Z,100959.09
2022-08-31T05:02:54.550Z,100960.84
2022-08-31T05:05:23.378Z,100967.63
2022-08-31T05:07:51.045Z,100965.75
2022-08-31T05:10:18.798Z,100960.44
2022-08-31T05:12:46.454Z,100968.72
2022-08-31T05:15:14.039Z,100967.41
2022-08-31T05:17:41.501Z,100971.06
2022-08-31T05:20:09.490Z,100971.19
2022-08-31T05:22:38.986Z,100974.34
2022-08-31T05:25:07.695Z,100977.53
2022-08-31T05:27:36.292Z,100983.44
2022-08-31T05:30:05.789Z,100983.09
2022-08-31T05:32:34.046Z,100983.56
2022-08-31T05:35:01.644Z,100986.75
2022-08-31T05:37:29.130Z,100985.09
2022-08-31T05:39:58.227Z,100986.25
2022-08-31T05:42:25.807Z,100991.41
2022-08-31T05:44:53.340Z,100992.16
2022-08-31T05:47:20.816Z,100992.91
2022-08-31T05:49:48.331Z,100982.94
2022-08-31T05:52:16.013Z,100988.75
2022-08-31T05:54:43.658Z,100987.81
2022-08-31T05:57:12.585Z,100995.66
2022-08-31T05:59:40.770Z,100998.59
2022-08-31T06:02:10.795Z,100994.00
2022-08-31T06:04:38.485Z,101005.72
2022-08-31T06:07:06.234Z,101003.16
2022-08-31T06:09:35.101Z,101006.78
2022-08-31T06:12:03.992Z,101009.94
2022-08-31T06:14:33.004Z,101005.91
2022-08-31T06:17:00.485Z,100996.47
2022-08-31T06:19:28.108Z,100999.28
2022-08-31T06:21:57.493Z,100994.63
2022-08-31T06:24:25.176Z,101004.06
2022-08-31T06:26:57.855Z,100997.84
2022-08-31T06:29:26.571Z,101005.13
2022-08-31T06:31:55.705Z,101005.38
2022-08-31T06:34:23.532Z,101007.84
2022-08-31T06:36:51.351Z,101005.09
2022-08-31T06:39:19.336Z,101013.78
2022-08-31T06:41:48.458Z,101013.81
2022-08-31T06:44:15.926Z,101012.81
2022-08-31T06:46:47.108Z,101015.78
2022-08-31T06:49:16.560Z,101019.69
2022-08-31T06:51:44.763Z,101024.56
2022-08-31T06:54:30.598Z,101026.78
2022-08-31T06:56:59.232Z,101035.75
2022-08-31T06:59:29.180Z,101043.47
2022-08-31T07:01:57.788Z,101031.34
2022-08-31T07:04:27.323Z,101033.72
2022-08-31T07:06:54.838Z,101029.69
2022-08-31T07:09:23.011Z,101028.88
2022-08-31T07:11:52.596Z,101035.03
2022-08-31T07:14:22.512Z,101037.19
2022-08-31T07:16:53.219Z,101037.13
2022-08-31T07:19:21.922Z,101047.31
2022-08-31T07:21:52.945Z,101047.53
2022-08-31T07:24:24.107Z,101057.41
2022-08-31T07:26:54.303Z,101051.34
2022-08-31T07:29:23.559Z,101056.16
2022-08-31T07:31:52.049Z,101056.88
2022-08-31T07:34:25.541Z,101050.13
2022-08-31T07:37:13.100Z,101063.03
2022-08-31T07:40:01.338Z,101060.34
2022-08-31T07:42:34.320Z,101067.31
2022-08-31T07:45:05.466Z,101071.47
2022-08-31T07:47:33.194Z,101074.75
2022-08-31T07:50:01.862Z,101072.66
2022-08-31T07:52:31.944Z,101077.50
2022-08-31T07:55:04.869Z,101086.19
2022-08-31T07:57:36.143Z,101079.16
2022-08-31T08:00:08.678Z,101079.03
2022-08-31T08:02:38.967Z,101078.94
2022-08-31T08:05:08.375Z,101084.47
2022-08-31T08:07:37.874Z,101086.47
2022-08-31T08:10:14.137Z,101078.59
2022-08-31T08:12:42.129Z,101087.19
2022-08-31T08:15:10.788Z,101086.25
2022-08-31T08:17:38.398Z,101098.03
2022-08-31T08:20:18.655Z,101100.38
2022-08-31T08:23:36.098Z,101100.38
2022-08-31T08:26:23.428Z,101092.88
2022-08-31T08:28:53.966Z,101096.97
2022-08-31T08:31:23.490Z,101101.09
2022-08-31T08:33:52.469Z,101104.38
2022-08-31T08:36:20.551Z,101104.38
2022-08-31T08:38:51.286Z,101104.25
2022-08-31T08:41:21.389Z,101105.31
2022-08-31T08:43:52.739Z,101098.75
2022-08-31T08:46:34.859Z,101109.09
2022-08-31T08:52:34.877Z,101103.56
2022-08-31T08:55:10.311Z,101104.88
2022-08-31T08:57:51.433Z,101097.69
2022-08-31T09:00:30.130Z,101098.53
2022-08-31T09:03:08.402Z,101089.47
2022-08-31T09:06:16.039Z,101093.25
2022-08-31T09:09:22.060Z,101095.81
2022-08-31T09:12:05.149Z,101099.13
2022-08-31T09:14:50.355Z,101101.84
2022-08-31T09:17:41.612Z,101099.75
2022-08-31T09:20:21.749Z,101085.94
2022-08-31T09:22:55.719Z,101099.41
2022-08-31T09:25:34.656Z,101088.78
2022-08-31T09:28:21.173Z,101105.03
2022-08-31T09:31:04.748Z,101103.53
2022-08-31T09:33:37.908Z,101102.09
2022-08-31T09:36:23.556Z,101105.63
2022-08-31T09:38:56.385Z,101106.56
2022-08-31T09:41:48.410Z,101102.91
2022-08-31T09:44:38.938Z,101102.56
2022-08-31T09:47:20.071Z,101109.16
2022-08-31T09:50:13.536Z,101103.53
2022-08-31T09:53:14.649Z,101102.69
2022-08-31T09:56:12.805Z,101097.75
2022-08-31T09:58:46.792Z,101104.81
2022-08-31T10:01:21.025Z,101111.03
2022-08-31T10:03:49.229Z,101105.63
2022-08-31T10:06:37.700Z,101108.69
2022-08-31T10:09:08.441Z,101103.84
2022-08-31T10:11:36.818Z,101102.09
2022-08-31T10:14:09.569Z,101104.44
2022-08-31T10:16:42.683Z,101105.97
2022-08-31T10:19:13.190Z,101101.47
2022-08-31T10:21:45.227Z,101101.69
2022-08-31T10:24:20.811Z,101098.50
2022-08-31T10:26:51.079Z,101098.03
2022-08-31T10:29:31.976Z,101103.66
2022-08-31T10:32:06.019Z,101094.13
2022-08-31T10:34:53.193Z,101094.91
2022-08-31T10:37:25.944Z,101101.59
2022-08-31T10:39:58.102Z,101099.00
2022-08-31T10:42:29.911Z,101103.44
2022-08-31T10:45:03.394Z,101105.03
2022-08-31T10:47:41.333Z,101104.47
2022-08-31T10:50:10.731Z,101100.97
2022-08-31T10:52:42.898Z,101097.53
2022-08-31T10:55:29.886Z,101103.56
2022-08-31T10:58:03.572Z,101094.50
2022-08-31T11:00:45.826Z,101099.03
2022-08-31T11:03:22.510Z,101099.19
2022-08-31T11:05:55.953Z,101096.75
2022-08-31T11:08:48.894Z,101095.53
2022-08-31T11:11:24.947Z,101098.66
2022-08-31T11:14:27.927Z,101093.88
2022-08-31T11:17:06.819Z,101094.53
2022-08-31T11:19:55.293Z,101095.13
2022-08-31T11:22:37.514Z,101083.50
2022-08-31T11:25:25.199Z,101093.13
2022-08-31T11:27:56.444Z,101095.16
2022-08-31T11:30:28.975Z,101090.41
2022-08-31T11:32:59.557Z,101085.47
2022-08-31T11:36:05.614Z,101085.34
2022-08-31T11:38:56.208Z,101081.41
2022-08-31T11:41:39.097Z,101083.59
2022-08-31T11:44:07.666Z,101077.09
2022-08-31T11:47:06.724Z,101076.50
2022-08-31T11:49:37.681Z,101086.88
2022-08-31T11:52:10.311Z,101080.44
2022-08-31T11:54:57.637Z,101071.41
2022-08-31T11:57:27.648Z,101070.44
2022-08-31T11:59:56.007Z,101066.13
2022-08-31T12:02:45.256Z,101068.88
2022-08-31T12:05:13.046Z,101059.69
2022-08-31T12:07:44.014Z,101055.91
2022-08-31T12:10:35.639Z,101057.09
2022-08-31T12:13:19.724Z,101064.19
2022-08-31T12:16:04.077Z,101056.44
2022-08-31T12:18:42.297Z,101057.94
2022-08-31T12:21:31.250Z,101058.00
2022-08-31T12:24:18.888Z,101052.69
2022-08-31T12:26:56.109Z,101052.91
2022-08-31T12:29:29.977Z,101052.69
2022-08-31T12:32:10.911Z,101048.28
2022-08-31T12:34:40.459Z,101044.59
2022-08-31T12:37:25.830Z,101053.94
2022-08-31T12:40:17.054Z,101050.41
2022-08-31T12:42:55.038Z,101049.63
2022-08-31T12:45:36.217Z,101052.88
2022-08-31T12:48:08.515Z,101055.88
2022-08-31T12:50:40.646Z,101046.66
2022-08-31T12:53:40.673Z,101048.59
2022-08-31T12:56:14.061Z,101046.44
2022-08-31T12:58:58.626Z,101045.41
2022-08-31T13:01:27.648Z,101042.97
2022-08-31T13:03:59.816Z,101032.97
2022-08-31T13:06:29.696Z,101035.78
2022-08-31T13:08:58.902Z,101032.59
2022-08-31T13:11:40.032Z,101033.91
2022-08-31T13:14:15.207Z,101030.78
2022-08-31T13:16:45.051Z,101025.44
2022-08-31T13:19:22.764Z,101019.97
2022-08-31T13:21:52.054Z,101016.28
2022-08-31T13:24:28.254Z,101015.78
2022-08-31T13:27:18.493Z,101013.88
2022-08-31T13:29:46.839Z,101013.34
2022-08-31T13:32:30.671Z,101014.44
2022-08-31T13:34:58.683Z,100998.56
2022-08-31T13:37:31.396Z,100995.03
2022-08-31T13:39:59.660Z,101006.94
2022-08-31T13:42:39.446Z,100998.19
2022-08-31T13:45:09.100Z,100998.78
2022-08-31T13:47:45.245Z,100992.28
2022-08-31T13:50:27.383Z,101000.47
2022-08-31T13:53:24.815Z,101000.47
2022-08-31T13:55:44.805Z,100998.81
2022-08-31T13:58:27.844Z,100995.56
2022-08-31T14:01:19.001Z,100986.78
2022-08-31T14:03:56.985Z,100993.88
2022-08-31T14:06:26.309Z,100991.72
2022-08-31T14:08:56.854Z,100992.78
2022-08-31T14:11:28.461Z,100979.16
2022-08-31T14:14:05.910Z,100978.91
2022-08-31T14:16:36.198Z,100978.66
2022-08-31T14:19:04.128Z,100973.72
2022-08-31T14:21:34.189Z,100974.00
2022-08-31T14:24:02.474Z,100979.72
2022-08-31T14:26:32.438Z,100976.22
2022-08-31T14:29:03.624Z,100976.47
2022-08-31T14:31:33.890Z,100971.50
2022-08-31T14:34:15.096Z,100981.63
2022-08-31T14:36:52.548Z,100969.63
2022-08-31T14:39:26.470Z,100971.50
2022-08-31T14:41:55.411Z,100969.09
2022-08-31T14:44:26.691Z,100957.94
2022-08-31T14:46:54.513Z,100961.72
2022-08-31T14:49:23.401Z,100943.22
2022-08-31T14:51:50.897Z,100951.69
2022-08-31T14:54:18.444Z,100946.50
2022-08-31T14:56:50.253Z,100952.28
2022-08-31T14:59:21.675Z,100954.72
2022-08-31T15:01:51.021Z,100953.34
2022-08-31T15:04:21.551Z,100946.00
2022-08-31T15:06:51.010Z,100944.91
2022-08-31T15:09:18.522Z,100937.28
2022-08-31T15:11:46.200Z,100947.91
2022-08-31T15:14:13.935Z,100944.38
2022-08-31T15:16:42.455Z,100947.41
2022-08-31T15:19:13.452Z,100944.09
2022-08-31T15:21:44.601Z,100945.47
2022-08-31T15:24:14.525Z,100943.84
2022-08-31T15:26:44.025Z,100951.47
2022-08-31T15:29:13.722Z,100947.38
2022-08-31T15:31:49.047Z,100956.66
2022-08-31T15:34:22.495Z,100946.31
2022-08-31T15:36:55.041Z,100955.56
2022-08-31T15:39:23.250Z,100954.72
2022-08-31T15:41:51.130Z,100954.16
2022-08-31T15:44:19.288Z,100953.06
2022-08-31T15:47:04.428Z,100945.44
2022-08-31T15:49:33.836Z,100950.91
2022-08-31T15:52:01.761Z,100945.72
2022-08-31T15:54:34.260Z,100944.34
2022-08-31T15:57:06.177Z,100937.28
2022-08-31T15:59:34.685Z,100941.88
2022-08-31T16:02:02.839Z,100930.47
2022-08-31T16:04:30.587Z,100938.63
2022-08-31T16:07:00.935Z,100934.81
2022-08-31T16:09:29.011Z,100931.81
2022-08-31T16:11:57.046Z,100926.38
2022-08-31T16:14:24.848Z,100928.53
2022-08-31T16:16:52.607Z,100931.81
2022-08-31T16:19:34.702Z,100925.53
2022-08-31T16:22:05.950Z,100923.66
2022-08-31T16:24:35.969Z,100919.28
2022-08-31T16:27:06.319Z,100920.91
2022-08-31T16:29:34.130Z,100915.72
2022-08-31T16:32:02.596Z,100916.50
2022-08-31T16:34:31.500Z,100919.50
2022-08-31T16:36:59.967Z,100915.88
2022-08-31T16:39:29.018Z,100906.59
2022-08-31T16:41:56.571Z,100909.06
2022-08-31T16:44:24.168Z,100911.47
2022-08-31T16:47:03.048Z,100915.84
2022-08-31T16:49:36.359Z,100916.34
2022-08-31T16:52:06.341Z,100921.75
2022-08-31T16:54:36.123Z,100904.31
2022-08-31T16:57:03.819Z,100907.63
2022-08-31T16:59:31.397Z,100905.44
2022-08-31T17:01:59.121Z,100907.06
2022-08-31T17:04:51.001Z,100907.56
2022-08-31T17:07:16.212Z,100903.19
2022-08-31T17:09:45.857Z,100914.34
2022-08-31T17:12:17.118Z,100916.28
2022-08-31T17:14:46.978Z,100917.88
2022-08-31T17:17:16.194Z,100914.34
2022-08-31T17:19:45.031Z,100911.63
2022-08-31T17:22:21.404Z,100918.09
2022-08-31T17:24:57.793Z,100917.78
2022-08-31T17:27:26.650Z,100918.34
2022-08-31T17:29:56.202Z,100923.28
2022-08-31T17:32:25.708Z,100930.03
2022-08-31T17:34:54.592Z,100932.09
2022-08-31T17:37:26.535Z,100935.38
2022-08-31T17:39:56.549Z,100939.19
2022-08-31T17:42:26.837Z,100943.22
2022-08-31T17:44:55.283Z,100941.50
2022-08-31T17:47:25.149Z,100952.31
2022-08-31T17:49:53.647Z,100938.91
2022-08-31T17:52:21.750Z,100945.03
2022-08-31T17:54:52.314Z,100949.03
2022-08-31T17:57:25.118Z,100947.41
2022-08-31T17:59:58.250Z,100943.84
2022-08-31T18:02:35.137Z,100956.84
2022-08-31T18:05:12.141Z,100952.19
2022-08-31T18:07:50.093Z,100959.78
2022-08-31T18:10:20.315Z,100961.59
2022-08-31T18:12:50.738Z,100968.63
2022-08-31T18:15:21.628Z,100968.31
2022-08-31T18:18:40.408Z,100970.16
2022-08-31T18:21:14.240Z,100979.72
2022-08-31T18:24:09.579Z,100981.03
2022-08-31T18:26:51.227Z,100984.47
2022-08-31T18:29:25.170Z,100987.38
2022-08-31T18:32:04.163Z,100986.69
2022-08-31T18:34:40.098Z,100989.22
2022-08-31T18:37:09.782Z,100994.59
2022-08-31T18:40:05.243Z,100997.66
2022-08-31T18:43:11.542Z,100998.47
2022-08-31T18:45:53.281Z,101002.81
2022-08-31T18:48:34.193Z,101003.78
2022-08-31T18:51:24.132Z,101009.13
2022-08-31T18:54:51.213Z,101021.88
2022-08-31T18:57:01.644Z,101017.28
2022-08-31T19:00:46.805Z,101020.91
2022-08-31T19:03:08.970Z,101008.44
2022-08-31T19:05:46.674Z,101021.34
2022-08-31T19:08:26.808Z,101022.00
2022-08-31T19:11:19.878Z,101021.97
2022-08-31T19:13:55.551Z,101016.69
2022-08-31T19:17:03.884Z,101028.03
2022-08-31T19:19:38.336Z,101030.69
2022-08-31T19:22:22.069Z,101027.25
2022-08-31T19:25:03.462Z,101015.03
2022-08-31T19:27:43.448Z,101019.47
2022-08-31T19:31:07.361Z,101023.16
2022-08-31T19:34:21.065Z,101036.66
2022-08-31T19:40:57.455Z,101025.84
2022-08-31T19:43:44.558Z,101028.25
2022-08-31T19:46:29.478Z,101024.41
2022-08-31T19:49:21.480Z,101030.44
2022-08-31T19:51:58.321Z,101036.47
2022-08-31T19:54:37.349Z,101034.34
2022-08-31T19:57:09.823Z,101030.75
2022-08-31T19:59:45.902Z,101031.81
2022-08-31T20:02:14.580Z,101033.47
2022-08-31T20:05:26.541Z,101038.66
2022-08-31T20:07:55.306Z,101033.75
2022-08-31T20:10:32.713Z,101028.00
2022-08-31T20:13:20.777Z,101034.72
2022-08-31T20:15:54.714Z,101029.78
2022-08-31T20:18:23.846Z,101024.75
2022-08-31T20:21:07.638Z,101024.75
2022-08-31T20:23:46.144Z,101034.50
2022-08-31T20:26:15.237Z,101029.81
2022-08-31T20:29:01.259Z,101020.88
2022-08-31T20:31:40.346Z,101021.34
2022-08-31T20:34:09.287Z,101019.84
2022-08-31T20:36:49.300Z,101020.56
2022-08-31T20:39:31.130Z,101026.22
2022-08-31T20:42:05.354Z,101028.09
2022-08-31T20:45:03.469Z,101036.69
2022-08-31T20:48:12.148Z,101020.22
2022-08-31T20:52:52.159Z,101020.72
2022-08-31T20:54:06.482Z,101033.19
2022-08-31T20:56:41.512Z,101027.53
2022-08-31T20:59:13.818Z,101026.97
2022-08-31T21:01:41.941Z,101039.19
2022-08-31T21:04:44.591Z,101037.88
2022-08-31T21:12:05.377Z,101040.94
2022-08-31T21:18:38.699Z,101045.53
2022-08-31T21:34:38.647Z,101051.63
2022-08-31T21:37:41.412Z,101050.66
2022-08-31T21:46:30.079Z,101057.97
2022-08-31T21:50:47.188Z,101053.25
2022-08-31T21:53:13.751Z,101059.50
2022-08-31T22:03:38.516Z,101070.41
2022-08-31T22:09:54.140Z,101066.03
2022-08-31T22:12:43.094Z,101055.56
2022-08-31T22:15:24.334Z,101061.97
2022-08-31T22:19:00.124Z,101056.88
2022-08-31T22:21:45.066Z,101071.47
2022-08-31T22:25:52.872Z,101064.94
2022-08-31T22:28:28.951Z,101062.34
2022-08-31T22:31:15.591Z,101063.84
2022-08-31T22:37:39.970Z,101066.06
2022-08-31T22:42:21.950Z,101062.06
2022-08-31T22:45:04.062Z,101052.84
2022-08-31T22:48:15.261Z,101061.88
2022-08-31T22:57:39.690Z,101059.63
2022-08-31T23:00:13.389Z,101062.09
2022-08-31T23:02:44.859Z,101070.28
2022-08-31T23:05:14.223Z,101071.75
2022-08-31T23:07:42.721Z,101064.28
2022-08-31T23:10:13.809Z,101060.97
2022-08-31T23:12:41.300Z,101056.13
2022-08-31T23:15:15.106Z,101060.84
2022-08-31T23:17:44.511Z,101056.13
2022-08-31T23:20:16.061Z,101063.78
2022-08-31T23:22:43.722Z,101061.59
2022-08-31T23:25:11.242Z,101048.53
2022-08-31T23:27:38.767Z,101058.50
2022-08-31T23:30:08.821Z,101054.16
2022-08-31T23:32:38.169Z,101062.13
2022-08-31T23:35:07.114Z,101059.06
2022-08-31T23:37:34.608Z,101054.72
2022-08-31T23:40:03.966Z,101050.00
2022-08-31T23:42:33.066Z,101053.16
2022-08-31T23:45:01.990Z,101052.41
2022-08-31T23:47:31.489Z,101047.41
2022-08-31T23:50:04.636Z,101045.81
2022-08-31T23:52:41.425Z,101047.16
2022-08-31T23:55:10.927Z,101052.75
2022-08-31T23:57:39.506Z,101050.06
